sensor_id;sensor_type;location;lat;lon;timestamp;pressure;altitude;pressure_sealevel;temperature;humidity
36192;BME280;22233;42.708;23.360;2023-06-22T00:01:46;95848.38;;;21.74;64.23
36192;BME280;22233;42.708;23.360;2023-06-22T00:04:12;95848.50;;;21.85;63.66
36192;BME280;22233;42.708;23.360;2023-06-22T00:06:37;95849.44;;;21.66;63.08
36192;BME280;22233;42.708;23.360;2023-06-22T00:09:03;95855.56;;;21.82;62.89
36192;BME280;22233;42.708;23.360;2023-06-22T00:11:28;95845.22;;;21.76;63.17
36192;BME280;22233;42.708;23.360;2023-06-22T00:13:54;95850.94;;;21.90;63.61
36192;BME280;22233;42.708;23.360;2023-06-22T00:16:19;95853.00;;;21.97;63.20
36192;BME280;22233;42.708;23.360;2023-06-22T00:18:45;95847.97;;;22.06;63.04
36192;BME280;22233;42.708;23.360;2023-06-22T00:21:12;95843.19;;;22.03;63.10
36192;BME280;22233;42.708;23.360;2023-06-22T00:23:38;95832.53;;;22.05;62.59
36192;BME280;22233;42.708;23.360;2023-06-22T00:26:03;95830.91;;;22.00;62.54
36192;BME280;22233;42.708;23.360;2023-06-22T00:28:28;95830.06;;;21.96;62.97
36192;BME280;22233;42.708;23.360;2023-06-22T00:30:54;95816.13;;;21.85;63.70
36192;BME280;22233;42.708;23.360;2023-06-22T00:33:19;95806.22;;;21.84;63.45
36192;BME280;22233;42.708;23.360;2023-06-22T00:35:45;95827.00;;;22.05;63.21
36192;BME280;22233;42.708;23.360;2023-06-22T00:38:11;95833.38;;;22.09;63.17
36192;BME280;22233;42.708;23.360;2023-06-22T00:40:36;95814.69;;;21.99;63.13
36192;BME280;22233;42.708;23.360;2023-06-22T00:43:02;95818.72;;;22.05;63.03
36192;BME280;22233;42.708;23.360;2023-06-22T00:45:28;95817.19;;;22.07;63.26
36192;BME280;22233;42.708;23.360;2023-06-22T00:47:56;95805.31;;;22.07;62.55
36192;BME280;22233;42.708;23.360;2023-06-22T00:50:22;95832.66;;;21.82;63.30
36192;BME280;22233;42.708;23.360;2023-06-22T00:52:51;95822.22;;;21.68;64.03
36192;BME280;22233;42.708;23.360;2023-06-22T00:55:19;95832.50;;;21.67;64.35
36192;BME280;22233;42.708;23.360;2023-06-22T00:57:46;95822.16;;;21.64;64.02
36192;BME280;22233;42.708;23.360;2023-06-22T01:00:12;95835.63;;;21.66;64.10
36192;BME280;22233;42.708;23.360;2023-06-22T01:02:42;95829.66;;;21.64;63.40
36192;BME280;22233;42.708;23.360;2023-06-22T01:05:12;95826.72;;;21.26;64.36
36192;BME280;22233;42.708;23.360;2023-06-22T01:10:27;95843.72;;;21.51;63.82
36192;BME280;22233;42.708;23.360;2023-06-22T01:13:00;95833.44;;;21.52;63.52
36192;BME280;22233;42.708;23.360;2023-06-22T01:17:52;95846.53;;;21.55;64.12
36192;BME280;22233;42.708;23.360;2023-06-22T01:20:19;95850.09;;;21.56;64.14
36192;BME280;22233;42.708;23.360;2023-06-22T01:22:50;95851.16;;;21.47;63.66
36192;BME280;22233;42.708;23.360;2023-06-22T01:25:26;95841.88;;;21.09;64.84
36192;BME280;22233;42.708;23.360;2023-06-22T01:28:31;95840.59;;;21.03;65.24
36192;BME280;22233;42.708;23.360;2023-06-22T01:30:57;95829.13;;;21.01;64.94
36192;BME280;22233;42.708;23.360;2023-06-22T01:33:33;95839.75;;;20.76;65.53
36192;BME280;22233;42.708;23.360;2023-06-22T01:36:01;95842.16;;;20.78;65.76
36192;BME280;22233;42.708;23.360;2023-06-22T01:38:28;95843.59;;;20.94;65.44
36192;BME280;22233;42.708;23.360;2023-06-22T01:40:54;95846.50;;;20.79;65.71
36192;BME280;22233;42.708;23.360;2023-06-22T01:43:21;95847.91;;;20.69;65.89
36192;BME280;22233;42.708;23.360;2023-06-22T01:45:49;95847.88;;;20.46;66.25
36192;BME280;22233;42.708;23.360;2023-06-22T01:48:15;95848.66;;;20.66;65.80
36192;BME280;22233;42.708;23.360;2023-06-22T01:50:41;95849.63;;;20.77;66.13
36192;BME280;22233;42.708;23.360;2023-06-22T01:53:06;95836.66;;;20.58;66.24
36192;BME280;22233;42.708;23.360;2023-06-22T01:55:32;95849.91;;;20.49;66.60
36192;BME280;22233;42.708;23.360;2023-06-22T01:57:57;95856.56;;;20.48;66.48
36192;BME280;22233;42.708;23.360;2023-06-22T02:00:25;95853.75;;;20.44;66.83
36192;BME280;22233;42.708;23.360;2023-06-22T02:03:10;95868.81;;;20.27;67.45
36192;BME280;22233;42.708;23.360;2023-06-22T02:05:47;95876.28;;;20.27;67.31
36192;BME280;22233;42.708;23.360;2023-06-22T02:08:20;95867.50;;;20.21;67.54
36192;BME280;22233;42.708;23.360;2023-06-22T02:10:47;95875.28;;;19.96;68.35
36192;BME280;22233;42.708;23.360;2023-06-22T02:13:13;95869.47;;;19.66;69.89
36192;BME280;22233;42.708;23.360;2023-06-22T02:15:39;95852.88;;;19.78;68.70
36192;BME280;22233;42.708;23.360;2023-06-22T02:18:06;95860.97;;;19.55;69.93
36192;BME280;22233;42.708;23.360;2023-06-22T02:20:31;95865.63;;;19.51;70.26
36192;BME280;22233;42.708;23.360;2023-06-22T02:22:57;95868.63;;;19.10;72.15
36192;BME280;22233;42.708;23.360;2023-06-22T02:25:22;95864.09;;;19.53;70.63
36192;BME280;22233;42.708;23.360;2023-06-22T02:27:47;95864.69;;;19.79;69.23
36192;BME280;22233;42.708;23.360;2023-06-22T02:30:14;95860.59;;;19.72;69.59
36192;BME280;22233;42.708;23.360;2023-06-22T02:32:41;95857.31;;;19.67;69.46
36192;BME280;22233;42.708;23.360;2023-06-22T02:35:08;95856.69;;;19.58;70.09
36192;BME280;22233;42.708;23.360;2023-06-22T02:37:35;95856.00;;;19.61;70.04
36192;BME280;22233;42.708;23.360;2023-06-22T02:40:05;95842.09;;;19.73;69.45
36192;BME280;22233;42.708;23.360;2023-06-22T02:42:32;95853.34;;;19.84;69.41
36192;BME280;22233;42.708;23.360;2023-06-22T02:44:57;95848.50;;;19.97;68.85
36192;BME280;22233;42.708;23.360;2023-06-22T02:47:22;95852.63;;;19.87;69.36
36192;BME280;22233;42.708;23.360;2023-06-22T02:49:48;95866.78;;;20.05;68.80
36192;BME280;22233;42.708;23.360;2023-06-22T02:52:13;95865.19;;;20.04;68.49
36192;BME280;22233;42.708;23.360;2023-06-22T02:54:39;95867.50;;;19.82;68.81
36192;BME280;22233;42.708;23.360;2023-06-22T02:57:04;95856.34;;;19.94;68.41
36192;BME280;22233;42.708;23.360;2023-06-22T02:59:30;95853.50;;;19.91;68.94
36192;BME280;22233;42.708;23.360;2023-06-22T03:01:55;95862.56;;;19.91;68.71
36192;BME280;22233;42.708;23.360;2023-06-22T03:04:21;95865.69;;;20.09;68.88
36192;BME280;22233;42.708;23.360;2023-06-22T03:06:46;95866.28;;;20.19;68.50
36192;BME280;22233;42.708;23.360;2023-06-22T03:09:16;95856.41;;;20.18;67.94
36192;BME280;22233;42.708;23.360;2023-06-22T03:11:42;95862.41;;;20.04;67.71
36192;BME280;22233;42.708;23.360;2023-06-22T03:14:07;95886.25;;;19.92;68.52
36192;BME280;22233;42.708;23.360;2023-06-22T03:16:33;95880.16;;;19.67;69.88
36192;BME280;22233;42.708;23.360;2023-06-22T03:18:59;95884.69;;;19.60;70.17
36192;BME280;22233;42.708;23.360;2023-06-22T03:21:28;95889.50;;;19.63;70.50
36192;BME280;22233;42.708;23.360;2023-06-22T03:23:53;95896.38;;;19.37;71.84
36192;BME280;22233;42.708;23.360;2023-06-22T03:26:19;95888.84;;;19.34;71.44
36192;BME280;22233;42.708;23.360;2023-06-22T03:28:45;95896.75;;;19.35;71.62
36192;BME280;22233;42.708;23.360;2023-06-22T03:31:11;95900.03;;;19.41;71.84
36192;BME280;22233;42.708;23.360;2023-06-22T03:33:36;95890.97;;;19.41;71.44
36192;BME280;22233;42.708;23.360;2023-06-22T03:36:02;95880.38;;;19.43;71.33
36192;BME280;22233;42.708;23.360;2023-06-22T03:38:27;95898.44;;;19.40;71.92
36192;BME280;22233;42.708;23.360;2023-06-22T03:40:53;95901.47;;;19.35;72.19
36192;BME280;22233;42.708;23.360;2023-06-22T03:43:18;95905.56;;;19.09;73.07
36192;BME280;22233;42.708;23.360;2023-06-22T03:45:43;95909.66;;;19.00;72.93
36192;BME280;22233;42.708;23.360;2023-06-22T03:48:11;95902.66;;;19.02;72.89
36192;BME280;22233;42.708;23.360;2023-06-22T03:50:36;95921.38;;;19.12;72.18
36192;BME280;22233;42.708;23.360;2023-06-22T03:53:02;95910.94;;;18.74;72.83
36192;BME280;22233;42.708;23.360;2023-06-22T03:55:28;95924.16;;;18.68;73.56
36192;BME280;22233;42.708;23.360;2023-06-22T03:57:53;95929.84;;;18.60;73.62
36192;BME280;22233;42.708;23.360;2023-06-22T04:00:22;95929.41;;;18.73;72.88
36192;BME280;22233;42.708;23.360;2023-06-22T04:02:47;95905.69;;;18.69;72.24
36192;BME280;22233;42.708;23.360;2023-06-22T04:05:13;95921.03;;;18.82;71.87
36192;BME280;22233;42.708;23.360;2023-06-22T04:07:38;95925.16;;;18.76;72.48
36192;BME280;22233;42.708;23.360;2023-06-22T04:10:05;95910.59;;;18.75;71.91
36192;BME280;22233;42.708;23.360;2023-06-22T04:12:30;95908.28;;;18.77;71.62
36192;BME280;22233;42.708;23.360;2023-06-22T04:14:55;95898.47;;;19.08;70.66
36192;BME280;22233;42.708;23.360;2023-06-22T04:17:21;95910.63;;;19.07;70.46
36192;BME280;22233;42.708;23.360;2023-06-22T04:19:47;95913.81;;;19.41;69.90
36192;BME280;22233;42.708;23.360;2023-06-22T04:22:12;95903.84;;;19.52;68.96
36192;BME280;22233;42.708;23.360;2023-06-22T04:24:38;95891.94;;;19.84;68.38
36192;BME280;22233;42.708;23.360;2023-06-22T04:27:03;95882.66;;;19.72;69.05
36192;BME280;22233;42.708;23.360;2023-06-22T04:29:29;95897.03;;;19.66;68.88
36192;BME280;22233;42.708;23.360;2023-06-22T04:31:58;95862.00;;;19.31;69.48
36192;BME280;22233;42.708;23.360;2023-06-22T04:34:28;95885.31;;;19.69;68.47
36192;BME280;22233;42.708;23.360;2023-06-22T04:36:54;95895.97;;;19.86;68.42
36192;BME280;22233;42.708;23.360;2023-06-22T04:39:20;95895.16;;;20.05;68.00
36192;BME280;22233;42.708;23.360;2023-06-22T04:41:45;95886.72;;;20.18;67.40
36192;BME280;22233;42.708;23.360;2023-06-22T04:44:15;95887.41;;;20.11;67.61
36192;BME280;22233;42.708;23.360;2023-06-22T04:46:51;95899.94;;;20.28;67.41
36192;BME280;22233;42.708;23.360;2023-06-22T04:49:23;95887.25;;;20.23;67.09
36192;BME280;22233;42.708;23.360;2023-06-22T04:51:48;95898.91;;;20.36;67.68
36192;BME280;22233;42.708;23.360;2023-06-22T04:54:16;95914.41;;;20.41;66.83
36192;BME280;22233;42.708;23.360;2023-06-22T04:56:42;95922.53;;;20.33;67.17
36192;BME280;22233;42.708;23.360;2023-06-22T04:59:07;95907.69;;;20.42;66.83
36192;BME280;22233;42.708;23.360;2023-06-22T05:01:33;95917.78;;;20.73;66.79
36192;BME280;22233;42.708;23.360;2023-06-22T05:04:00;95913.81;;;20.93;66.02
36192;BME280;22233;42.708;23.360;2023-06-22T05:06:26;95903.06;;;20.88;66.17
36192;BME280;22233;42.708;23.360;2023-06-22T05:08:54;95908.69;;;21.19;65.11
36192;BME280;22233;42.708;23.360;2023-06-22T05:11:26;95884.09;;;21.10;64.58
36192;BME280;22233;42.708;23.360;2023-06-22T05:13:52;95888.94;;;21.17;65.31
36192;BME280;22233;42.708;23.360;2023-06-22T05:16:18;95897.94;;;21.37;65.23
36192;BME280;22233;42.708;23.360;2023-06-22T05:18:50;95894.28;;;21.29;65.23
36192;BME280;22233;42.708;23.360;2023-06-22T05:21:16;95911.28;;;21.08;65.79
36192;BME280;22233;42.708;23.360;2023-06-22T05:23:41;95910.06;;;21.05;66.39
36192;BME280;22233;42.708;23.360;2023-06-22T05:26:07;95911.72;;;21.33;65.27
36192;BME280;22233;42.708;23.360;2023-06-22T05:28:34;95912.91;;;21.59;64.78
36192;BME280;22233;42.708;23.360;2023-06-22T05:31:00;95926.16;;;21.46;65.16
36192;BME280;22233;42.708;23.360;2023-06-22T05:33:25;95920.97;;;21.71;64.33
36192;BME280;22233;42.708;23.360;2023-06-22T05:35:50;95937.84;;;21.89;64.60
36192;BME280;22233;42.708;23.360;2023-06-22T05:38:16;95933.22;;;21.97;64.48
36192;BME280;22233;42.708;23.360;2023-06-22T05:40:41;95934.19;;;21.81;65.49
36192;BME280;22233;42.708;23.360;2023-06-22T05:43:06;95931.31;;;21.74;65.80
36192;BME280;22233;42.708;23.360;2023-06-22T05:45:32;95932.47;;;21.73;65.17
36192;BME280;22233;42.708;23.360;2023-06-22T05:47:57;95945.81;;;21.94;64.32
36192;BME280;22233;42.708;23.360;2023-06-22T05:50:23;95941.44;;;21.93;64.55
36192;BME280;22233;42.708;23.360;2023-06-22T05:52:48;95937.00;;;22.15;64.27
36192;BME280;22233;42.708;23.360;2023-06-22T05:55:13;95906.84;;;21.76;65.18
36192;BME280;22233;42.708;23.360;2023-06-22T05:57:40;95936.69;;;22.20;64.90
36192;BME280;22233;42.708;23.360;2023-06-22T06:00:06;95938.03;;;22.30;63.27
36192;BME280;22233;42.708;23.360;2023-06-22T06:02:35;95926.28;;;22.40;62.54
36192;BME280;22233;42.708;23.360;2023-06-22T06:05:01;95931.25;;;22.27;63.49
36192;BME280;22233;42.708;23.360;2023-06-22T06:07:28;95921.03;;;22.31;62.92
36192;BME280;22233;42.708;23.360;2023-06-22T06:09:53;95924.66;;;22.36;62.61
36192;BME280;22233;42.708;23.360;2023-06-22T06:12:18;95928.72;;;22.45;62.17
36192;BME280;22233;42.708;23.360;2023-06-22T06:14:44;95928.06;;;22.59;62.07
36192;BME280;22233;42.708;23.360;2023-06-22T06:17:09;95916.03;;;22.78;60.73
36192;BME280;22233;42.708;23.360;2023-06-22T06:19:35;95920.97;;;22.99;61.45
36192;BME280;22233;42.708;23.360;2023-06-22T06:22:00;95926.72;;;23.17;58.98
36192;BME280;22233;42.708;23.360;2023-06-22T06:24:26;95920.00;;;23.22;59.39
36192;BME280;22233;42.708;23.360;2023-06-22T06:26:51;95919.63;;;23.23;58.26
36192;BME280;22233;42.708;23.360;2023-06-22T06:29:17;95922.19;;;23.43;58.19
36192;BME280;22233;42.708;23.360;2023-06-22T06:31:42;95926.22;;;23.52;57.77
36192;BME280;22233;42.708;23.360;2023-06-22T06:34:08;95922.94;;;23.40;59.75
36192;BME280;22233;42.708;23.360;2023-06-22T06:36:33;95914.31;;;23.52;58.19
36192;BME280;22233;42.708;23.360;2023-06-22T06:38:59;95918.25;;;23.47;59.02
36192;BME280;22233;42.708;23.360;2023-06-22T06:41:24;95896.66;;;23.75;57.95
36192;BME280;22233;42.708;23.360;2023-06-22T06:43:49;95897.25;;;24.05;58.08
36192;BME280;22233;42.708;23.360;2023-06-22T06:46:15;95917.94;;;24.19;57.78
36192;BME280;22233;42.708;23.360;2023-06-22T06:48:40;95913.22;;;24.33;56.51
36192;BME280;22233;42.708;23.360;2023-06-22T06:51:06;95891.00;;;24.30;56.64
36192;BME280;22233;42.708;23.360;2023-06-22T06:53:35;95899.06;;;24.57;55.45
36192;BME280;22233;42.708;23.360;2023-06-22T06:56:00;95886.78;;;24.58;55.01
36192;BME280;22233;42.708;23.360;2023-06-22T06:58:30;95895.13;;;24.72;54.61
36192;BME280;22233;42.708;23.360;2023-06-22T07:00:55;95897.53;;;24.81;55.23
36192;BME280;22233;42.708;23.360;2023-06-22T07:03:21;95888.78;;;24.79;54.56
36192;BME280;22233;42.708;23.360;2023-06-22T07:05:46;95887.59;;;24.87;54.84
36192;BME280;22233;42.708;23.360;2023-06-22T07:08:12;95887.66;;;25.01;54.51
36192;BME280;22233;42.708;23.360;2023-06-22T07:10:40;95899.59;;;25.27;54.26
36192;BME280;22233;42.708;23.360;2023-06-22T07:13:05;95892.84;;;25.39;54.08
36192;BME280;22233;42.708;23.360;2023-06-22T07:15:31;95898.38;;;25.57;53.79
36192;BME280;22233;42.708;23.360;2023-06-22T07:17:56;95894.44;;;25.33;55.07
36192;BME280;22233;42.708;23.360;2023-06-22T07:20:21;95899.19;;;25.39;55.43
36192;BME280;22233;42.708;23.360;2023-06-22T07:22:47;95897.19;;;25.47;54.71
36192;BME280;22233;42.708;23.360;2023-06-22T07:25:12;95889.63;;;25.65;54.84
36192;BME280;22233;42.708;23.360;2023-06-22T07:27:56;95896.75;;;25.91;53.52
36192;BME280;22233;42.708;23.360;2023-06-22T07:30:21;95887.63;;;25.84;53.68
36192;BME280;22233;42.708;23.360;2023-06-22T07:32:47;95898.34;;;26.00;54.34
36192;BME280;22233;42.708;23.360;2023-06-22T07:35:12;95898.72;;;26.09;54.31
36192;BME280;22233;42.708;23.360;2023-06-22T07:37:38;95907.84;;;26.17;53.83
36192;BME280;22233;42.708;23.360;2023-06-22T07:40:03;95905.84;;;26.21;53.19
36192;BME280;22233;42.708;23.360;2023-06-22T07:42:31;95902.22;;;26.35;52.88
36192;BME280;22233;42.708;23.360;2023-06-22T07:44:58;95895.81;;;26.41;52.32
36192;BME280;22233;42.708;23.360;2023-06-22T07:47:23;95897.25;;;26.75;51.62
36192;BME280;22233;42.708;23.360;2023-06-22T07:49:51;95883.88;;;26.37;52.72
36192;BME280;22233;42.708;23.360;2023-06-22T07:52:17;95894.50;;;26.67;52.36
36192;BME280;22233;42.708;23.360;2023-06-22T07:54:42;95895.56;;;26.92;52.04
36192;BME280;22233;42.708;23.360;2023-06-22T07:57:07;95896.72;;;26.98;51.70
36192;BME280;22233;42.708;23.360;2023-06-22T07:59:33;95890.22;;;26.48;55.00
36192;BME280;22233;42.708;23.360;2023-06-22T08:01:58;95885.53;;;27.01;52.81
36192;BME280;22233;42.708;23.360;2023-06-22T08:04:24;95877.84;;;27.20;51.72
36192;BME280;22233;42.708;23.360;2023-06-22T08:06:49;95871.44;;;27.26;51.55
36192;BME280;22233;42.708;23.360;2023-06-22T08:09:15;95876.94;;;27.37;50.54
36192;BME280;22233;42.708;23.360;2023-06-22T08:11:40;95872.53;;;27.36;50.04
36192;BME280;22233;42.708;23.360;2023-06-22T08:14:05;95872.50;;;27.43;51.18
36192;BME280;22233;42.708;23.360;2023-06-22T08:16:31;95864.38;;;27.07;51.32
36192;BME280;22233;42.708;23.360;2023-06-22T08:18:56;95873.06;;;27.24;50.82
36192;BME280;22233;42.708;23.360;2023-06-22T08:21:22;95841.50;;;27.30;50.97
36192;BME280;22233;42.708;23.360;2023-06-22T08:23:48;95857.50;;;27.68;49.67
36192;BME280;22233;42.708;23.360;2023-06-22T08:26:14;95866.34;;;27.63;50.23
36192;BME280;22233;42.708;23.360;2023-06-22T08:28:39;95868.47;;;27.93;49.63
36192;BME280;22233;42.708;23.360;2023-06-22T08:31:05;95854.38;;;28.04;48.95
36192;BME280;22233;42.708;23.360;2023-06-22T08:33:30;95854.94;;;27.88;49.53
36192;BME280;22233;42.708;23.360;2023-06-22T08:35:56;95861.09;;;28.06;50.78
36192;BME280;22233;42.708;23.360;2023-06-22T08:38:21;95873.19;;;28.31;51.33
36192;BME280;22233;42.708;23.360;2023-06-22T08:40:47;95864.53;;;28.56;50.74
36192;BME280;22233;42.708;23.360;2023-06-22T08:43:12;95870.66;;;28.74;50.46
36192;BME280;22233;42.708;23.360;2023-06-22T08:45:38;95869.22;;;28.62;50.93
36192;BME280;22233;42.708;23.360;2023-06-22T08:48:03;95866.38;;;28.66;50.85
36192;BME280;22233;42.708;23.360;2023-06-22T08:50:29;95858.22;;;28.79;50.54
36192;BME280;22233;42.708;23.360;2023-06-22T08:52:54;95860.75;;;28.97;50.99
36192;BME280;22233;42.708;23.360;2023-06-22T08:55:19;95850.03;;;28.92;50.36
36192;BME280;22233;42.708;23.360;2023-06-22T08:57:45;95842.75;;;28.98;50.83
36192;BME280;22233;42.708;23.360;2023-06-22T09:00:11;95837.94;;;28.98;49.74
36192;BME280;22233;42.708;23.360;2023-06-22T09:02:47;95835.50;;;29.27;50.24
36192;BME280;22233;42.708;23.360;2023-06-22T09:05:12;95837.81;;;29.33;49.70
36192;BME280;22233;42.708;23.360;2023-06-22T09:07:38;95850.78;;;29.23;50.34
36192;BME280;22233;42.708;23.360;2023-06-22T09:10:04;95843.53;;;28.98;50.03
36192;BME280;22233;42.708;23.360;2023-06-22T09:12:30;95828.66;;;29.32;49.22
36192;BME280;22233;42.708;23.360;2023-06-22T09:14:56;95841.88;;;29.75;47.92
36192;BME280;22233;42.708;23.360;2023-06-22T09:17:22;95843.28;;;30.07;46.92
36192;BME280;22233;42.708;23.360;2023-06-22T09:19:48;95829.69;;;30.05;46.90
36192;BME280;22233;42.708;23.360;2023-06-22T09:22:14;95831.38;;;30.23;46.42
36192;BME280;22233;42.708;23.360;2023-06-22T09:24:39;95834.88;;;30.07;46.59
36192;BME280;22233;42.708;23.360;2023-06-22T09:27:05;95846.78;;;29.91;46.33
36192;BME280;22233;42.708;23.360;2023-06-22T09:29:30;95846.44;;;30.09;44.65
36192;BME280;22233;42.708;23.360;2023-06-22T09:31:59;95838.44;;;30.31;44.47
36192;BME280;22233;42.708;23.360;2023-06-22T09:34:24;95844.44;;;30.50;45.36
36192;BME280;22233;42.708;23.360;2023-06-22T09:36:49;95849.09;;;30.56;44.43
36192;BME280;22233;42.708;23.360;2023-06-22T09:39:15;95846.56;;;30.02;45.54
36192;BME280;22233;42.708;23.360;2023-06-22T09:41:40;95848.25;;;30.19;45.26
36192;BME280;22233;42.708;23.360;2023-06-22T09:44:06;95840.78;;;30.13;44.50
36192;BME280;22233;42.708;23.360;2023-06-22T09:46:31;95839.06;;;29.99;44.06
36192;BME280;22233;42.708;23.360;2023-06-22T09:48:57;95839.63;;;30.30;43.12
36192;BME280;22233;42.708;23.360;2023-06-22T09:51:22;95827.41;;;30.40;43.85
36192;BME280;22233;42.708;23.360;2023-06-22T09:53:49;95835.44;;;30.58;44.23
36192;BME280;22233;42.708;23.360;2023-06-22T09:56:15;95833.44;;;30.95;44.26
36192;BME280;22233;42.708;23.360;2023-06-22T09:58:42;95828.88;;;31.18;43.07
36192;BME280;22233;42.708;23.360;2023-06-22T10:01:08;95829.22;;;31.36;39.69
36192;BME280;22233;42.708;23.360;2023-06-22T10:03:33;95817.91;;;30.91;40.15
36192;BME280;22233;42.708;23.360;2023-06-22T10:05:59;95813.25;;;31.17;41.01
36192;BME280;22233;42.708;23.360;2023-06-22T10:08:24;95831.84;;;31.43;40.50
36192;BME280;22233;42.708;23.360;2023-06-22T10:10:49;95817.25;;;31.65;40.77
36192;BME280;22233;42.708;23.360;2023-06-22T10:13:15;95808.41;;;31.67;41.22
36192;BME280;22233;42.708;23.360;2023-06-22T10:15:41;95817.81;;;31.89;40.03
36192;BME280;22233;42.708;23.360;2023-06-22T10:18:06;95807.81;;;31.88;38.57
36192;BME280;22233;42.708;23.360;2023-06-22T10:20:32;95813.00;;;32.19;38.72
36192;BME280;22233;42.708;23.360;2023-06-22T10:22:57;95811.22;;;31.96;39.09
36192;BME280;22233;42.708;23.360;2023-06-22T10:25:24;95808.25;;;31.87;38.68
36192;BME280;22233;42.708;23.360;2023-06-22T10:27:49;95812.31;;;32.15;40.05
36192;BME280;22233;42.708;23.360;2023-06-22T10:30:15;95801.09;;;32.28;37.60
36192;BME280;22233;42.708;23.360;2023-06-22T10:32:42;95811.03;;;32.45;38.52
36192;BME280;22233;42.708;23.360;2023-06-22T10:35:09;95807.88;;;32.43;38.63
36192;BME280;22233;42.708;23.360;2023-06-22T10:37:36;95793.16;;;32.39;37.54
36192;BME280;22233;42.708;23.360;2023-06-22T10:40:02;95801.41;;;32.72;37.87
36192;BME280;22233;42.708;23.360;2023-06-22T10:42:28;95787.19;;;32.50;36.89
36192;BME280;22233;42.708;23.360;2023-06-22T10:44:54;95791.59;;;32.38;37.58
36192;BME280;22233;42.708;23.360;2023-06-22T10:47:19;95795.00;;;32.58;37.63
36192;BME280;22233;42.708;23.360;2023-06-22T10:49:45;95787.66;;;32.48;37.74
36192;BME280;22233;42.708;23.360;2023-06-22T10:52:10;95787.47;;;32.68;37.07
36192;BME280;22233;42.708;23.360;2023-06-22T10:54:37;95780.06;;;32.74;38.01
36192;BME280;22233;42.708;23.360;2023-06-22T10:57:02;95775.88;;;32.66;37.56
36192;BME280;22233;42.708;23.360;2023-06-22T10:59:28;95789.28;;;32.62;36.96
36192;BME280;22233;42.708;23.360;2023-06-22T11:01:57;95776.66;;;32.79;37.46
36192;BME280;22233;42.708;23.360;2023-06-22T11:04:23;95789.03;;;32.95;37.40
36192;BME280;22233;42.708;23.360;2023-06-22T11:06:49;95788.47;;;33.13;36.97
36192;BME280;22233;42.708;23.360;2023-06-22T11:09:15;95784.28;;;32.92;36.87
36192;BME280;22233;42.708;23.360;2023-06-22T11:11:47;95775.53;;;33.02;36.89
36192;BME280;22233;42.708;23.360;2023-06-22T11:14:12;95786.34;;;33.52;37.26
36192;BME280;22233;42.708;23.360;2023-06-22T11:16:38;95785.56;;;33.51;35.30
36192;BME280;22233;42.708;23.360;2023-06-22T11:19:05;95768.78;;;33.48;36.25
36192;BME280;22233;42.708;23.360;2023-06-22T11:21:30;95779.78;;;33.33;36.31
36192;BME280;22233;42.708;23.360;2023-06-22T11:23:56;95777.41;;;33.06;37.38
36192;BME280;22233;42.708;23.360;2023-06-22T11:26:22;95772.38;;;33.13;36.58
36192;BME280;22233;42.708;23.360;2023-06-22T11:28:48;95772.78;;;33.37;36.95
36192;BME280;22233;42.708;23.360;2023-06-22T11:31:14;95766.72;;;33.26;35.90
36192;BME280;22233;42.708;23.360;2023-06-22T11:33:39;95766.09;;;32.96;37.26
36192;BME280;22233;42.708;23.360;2023-06-22T11:36:05;95767.06;;;32.90;37.04
36192;BME280;22233;42.708;23.360;2023-06-22T11:38:30;95766.09;;;32.96;37.89
36192;BME280;22233;42.708;23.360;2023-06-22T11:40:58;95767.41;;;32.92;37.48
36192;BME280;22233;42.708;23.360;2023-06-22T11:43:23;95758.78;;;32.73;37.15
36192;BME280;22233;42.708;23.360;2023-06-22T11:45:49;95761.31;;;33.06;37.90
36192;BME280;22233;42.708;23.360;2023-06-22T11:48:15;95749.34;;;33.40;37.66
36192;BME280;22233;42.708;23.360;2023-06-22T11:50:41;95751.19;;;33.69;36.93
36192;BME280;22233;42.708;23.360;2023-06-22T11:53:06;95733.50;;;33.56;35.94
36192;BME280;22233;42.708;23.360;2023-06-22T11:55:31;95742.13;;;33.74;35.63
36192;BME280;22233;42.708;23.360;2023-06-22T11:57:57;95737.66;;;33.64;36.23
36192;BME280;22233;42.708;23.360;2023-06-22T12:00:28;95738.50;;;33.17;35.77
36192;BME280;22233;42.708;23.360;2023-06-22T12:02:55;95754.81;;;33.57;36.93
36192;BME280;22233;42.708;23.360;2023-06-22T12:05:21;95752.22;;;33.62;35.46
36192;BME280;22233;42.708;23.360;2023-06-22T12:07:48;95749.25;;;33.31;35.88
36192;BME280;22233;42.708;23.360;2023-06-22T12:10:13;95732.09;;;33.16;36.02
36192;BME280;22233;42.708;23.360;2023-06-22T12:12:38;95745.88;;;33.23;36.97
36192;BME280;22233;42.708;23.360;2023-06-22T12:15:04;95752.69;;;33.13;37.14
36192;BME280;22233;42.708;23.360;2023-06-22T12:17:31;95755.19;;;32.73;37.63
36192;BME280;22233;42.708;23.360;2023-06-22T12:19:56;95750.00;;;32.71;38.20
36192;BME280;22233;42.708;23.360;2023-06-22T12:22:21;95763.56;;;32.47;38.78
36192;BME280;22233;42.708;23.360;2023-06-22T12:24:47;95778.69;;;32.11;39.15
36192;BME280;22233;42.708;23.360;2023-06-22T12:27:12;95787.47;;;31.38;40.93
36192;BME280;22233;42.708;23.360;2023-06-22T12:29:41;95786.25;;;31.56;40.91
36192;BME280;22233;42.708;23.360;2023-06-22T12:32:07;95793.16;;;30.85;42.67
36192;BME280;22233;42.708;23.360;2023-06-22T12:34:32;95802.78;;;30.12;44.83
36192;BME280;22233;42.708;23.360;2023-06-22T12:36:58;95796.16;;;29.82;46.66
36192;BME280;22233;42.708;23.360;2023-06-22T12:39:23;95813.50;;;29.02;49.81
36192;BME280;22233;42.708;23.360;2023-06-22T12:41:49;95822.66;;;27.83;52.93
36192;BME280;22233;42.708;23.360;2023-06-22T12:44:14;95806.16;;;27.17;53.87
36192;BME280;22233;42.708;23.360;2023-06-22T12:46:39;95803.19;;;26.93;53.94
36192;BME280;22233;42.708;23.360;2023-06-22T12:49:05;95801.69;;;26.78;54.55
36192;BME280;22233;42.708;23.360;2023-06-22T12:51:30;95813.28;;;26.73;54.88